Time;durP1;ratioP1;P1;durP2;ratioP2;P2;SDS_P1;SDS_P2;PMS_P1;PMS_P2;Temp;Humidity;BMP_temperature;BMP_pressure;BME280_temperature;BME280_humidity;BME280_pressure;Samples;Min_cycle;Max_cycle;Signal;HPM_P1;HPM_P2
2023/06/26 00:01:32;;;;;;;1.92;1.13;;;22.30;56.80;;;;;;5049759;28;20127;-85
2023/06/26 00:03:59;;;;;;;4.13;1.20;;;22.20;56.80;;;;;;5053263;28;20055;-85
2023/06/26 00:06:25;;;;;;;2.53;1.10;;;22.20;56.90;;;;;;5042846;28;20021;-86
2023/06/26 00:08:55;;;;;;;1.50;0.88;;;22.20;57.00;;;;;;5037190;28;20518;-87
2023/06/26 00:11:22;;;;;;;2.92;1.10;;;22.10;57.00;;;;;;5052863;28;20033;-85
2023/06/26 00:13:48;;;;;;;3.08;1.35;;;22.10;57.00;;;;;;5043490;28;20487;-86
2023/06/26 00:16:14;;;;;;;3.55;0.93;;;22.10;57.10;;;;;;5054536;28;20032;-86
2023/06/26 00:18:41;;;;;;;3.20;1.00;;;22.00;57.00;;;;;;5016900;28;20048;-84
2023/06/26 00:21:07;;;;;;;1.85;0.88;;;22.00;57.10;;;;;;5030338;28;20033;-85
2023/06/26 00:23:36;;;;;;;3.25;1.40;;;22.00;57.10;;;;;;5040860;28;20396;-89
2023/06/26 00:26:04;;;;;;;1.63;0.90;;;22.00;57.20;;;;;;5039774;28;20089;-85
2023/06/26 00:28:30;;;;;;;2.53;1.20;;;21.90;57.10;;;;;;5040969;28;20137;-85
2023/06/26 00:30:57;;;;;;;2.58;0.98;;;21.90;57.20;;;;;;5040417;28;20029;-86
2023/06/26 00:33:23;;;;;;;5.72;1.42;;;21.90;57.20;;;;;;5034739;28;20060;-86
2023/06/26 00:35:50;;;;;;;1.50;1.10;;;21.90;57.90;;;;;;5031937;28;20075;-86
2023/06/26 00:38:17;;;;;;;3.40;1.35;;;21.80;57.20;;;;;;5028561;28;20041;-85
2023/06/26 00:40:43;;;;;;;1.55;1.20;;;21.80;57.30;;;;;;5042869;28;20034;-84
2023/06/26 00:43:11;;;;;;;2.30;0.85;;;21.80;57.30;;;;;;5052537;28;20029;-84
2023/06/26 00:45:46;;;;;;;2.75;1.00;;;21.80;57.40;;;;;;5051174;28;20231;-86
2023/06/26 00:48:13;;;;;;;3.67;1.42;;;21.70;57.30;;;;;;5048455;28;20280;-83
2023/06/26 00:50:41;;;;;;;2.95;1.15;;;21.70;57.40;;;;;;5039162;28;20043;-84
2023/06/26 00:53:10;;;;;;;2.60;0.93;;;21.70;57.50;;;;;;5053871;28;20681;-83
2023/06/26 00:55:37;;;;;;;2.38;0.90;;;21.70;57.60;;;;;;5061160;28;20029;-83
2023/06/26 00:58:04;;;;;;;2.92;1.23;;;21.60;58.00;;;;;;5046966;28;20611;-83
2023/06/26 01:00:30;;;;;;;1.70;1.02;;;21.60;57.50;;;;;;5040302;28;20067;-84
2023/06/26 01:02:58;;;;;;;3.28;1.40;;;21.60;57.70;;;;;;5040585;28;20186;-84
2023/06/26 01:05:28;;;;;;;3.83;1.08;;;21.60;57.70;;;;;;5024431;28;20511;-84
2023/06/26 01:07:57;;;;;;;2.25;1.00;;;21.60;57.80;;;;;;5039892;28;20047;-85
2023/06/26 01:10:27;;;;;;;3.60;1.05;;;21.50;57.70;;;;;;5045714;28;20028;-84
2023/06/26 01:12:54;;;;;;;4.18;1.25;;;21.50;57.80;;;;;;5025492;28;20041;-84
2023/06/26 01:15:20;;;;;;;3.15;1.02;;;21.50;57.80;;;;;;5017683;28;20266;-86
2023/06/26 01:17:47;;;;;;;2.50;0.95;;;21.50;57.90;;;;;;5056862;28;20048;-86
2023/06/26 01:20:14;;;;;;;2.88;1.40;;;21.40;57.80;;;;;;5043097;28;20037;-85
2023/06/26 01:23:03;;;;;;;2.22;0.90;;;21.40;57.80;;;;;;5051112;28;20044;-85
2023/06/26 01:25:38;;;;;;;1.85;0.82;;;21.40;58.00;;;;;;5047577;28;20028;-84
2023/06/26 01:28:05;;;;;;;2.53;1.02;;;21.30;58.50;;;;;;5050439;28;20040;-84
2023/06/26 01:30:33;;;;;;;2.25;1.27;;;21.30;57.90;;;;;;5051418;28;21208;-83
2023/06/26 01:33:05;;;;;;;2.75;1.10;;;21.30;58.00;;;;;;5044430;28;20061;-83
2023/06/26 01:35:32;;;;;;;3.10;1.27;;;21.30;58.10;;;;;;5018985;28;20151;-84
2023/06/26 01:38:16;;;;;;;2.40;1.08;;;21.20;58.00;;;;;;5036984;28;20412;-84
2023/06/26 01:40:43;;;;;;;2.40;0.82;;;21.20;58.10;;;;;;5050988;28;20103;-87
2023/06/26 01:43:50;;;;;;;3.90;1.17;;;21.20;58.10;;;;;;5017690;28;20399;-86
2023/06/26 01:46:36;;;;;;;4.38;1.00;;;21.20;58.20;;;;;;5009690;28;20056;-84
2023/06/26 01:49:26;;;;;;;2.28;1.10;;;21.20;58.80;;;;;;5046450;28;20036;-85
2023/06/26 01:52:16;;;;;;;3.20;1.30;;;21.10;58.10;;;;;;5030103;28;20036;-85
2023/06/26 01:55:07;;;;;;;2.05;1.00;;;21.10;58.10;;;;;;5047651;28;20044;-84
2023/06/26 01:57:36;;;;;;;3.35;1.15;;;21.10;58.10;;;;;;5051194;28;20049;-84
2023/06/26 02:00:03;;;;;;;2.50;1.13;;;21.00;57.90;;;;;;5039095;28;20488;-86
2023/06/26 02:02:42;;;;;;;2.17;1.02;;;21.00;58.00;;;;;;5049473;28;20059;-86
2023/06/26 02:05:09;;;;;;;4.72;1.27;;;20.90;57.90;;;;;;5049411;28;20032;-88
2023/06/26 02:07:36;;;;;;;2.58;1.10;;;20.90;57.90;;;;;;5052917;28;20394;-84
2023/06/26 02:10:03;;;;;;;3.50;1.10;;;20.90;58.00;;;;;;5018858;28;20040;-84
2023/06/26 02:12:29;;;;;;;2.58;1.08;;;20.90;58.10;;;;;;5046835;28;20513;-83
2023/06/26 02:14:56;;;;;;;6.13;1.38;;;20.80;57.90;;;;;;5047338;28;20028;-84
2023/06/26 02:17:24;;;;;;;2.90;1.08;;;20.80;58.00;;;;;;5057171;28;20071;-84
2023/06/26 02:19:54;;;;;;;3.10;1.30;;;20.80;58.10;;;;;;5030557;28;20024;-86
2023/06/26 02:22:20;;;;;;;2.13;0.88;;;20.80;58.10;;;;;;5049308;28;20036;-86
2023/06/26 02:24:48;;;;;;;3.95;1.38;;;20.80;58.10;;;;;;5041026;28;20063;-85
2023/06/26 02:27:14;;;;;;;2.10;0.98;;;20.80;58.10;;;;;;5051262;28;20029;-86
2023/06/26 02:29:41;;;;;;;2.42;0.93;;;20.80;58.20;;;;;;5055582;28;20024;-87
2023/06/26 02:32:08;;;;;;;4.03;1.73;;;20.70;58.00;;;;;;5017358;28;20143;-86
2023/06/26 02:34:35;;;;;;;3.03;1.20;;;20.70;58.10;;;;;;5054208;28;20523;-85
2023/06/26 02:37:01;;;;;;;5.03;1.70;;;20.70;58.10;;;;;;5050058;28;20047;-89
2023/06/26 02:39:28;;;;;;;2.53;1.10;;;20.70;58.20;;;;;;5041547;28;20209;-89
2023/06/26 02:41:54;;;;;;;3.83;1.73;;;20.70;58.20;;;;;;5039897;28;20045;-91
2023/06/26 02:44:22;;;;;;;6.03;1.38;;;20.70;58.20;;;;;;5031217;28;20310;-90
2023/06/26 02:46:48;;;;;;;2.70;1.10;;;20.70;58.30;;;;;;5045271;28;20032;-88
2023/06/26 02:49:15;;;;;;;5.32;1.92;;;20.70;58.40;;;;;;5041689;28;20044;-86
2023/06/26 02:51:41;;;;;;;2.50;1.17;;;20.70;58.40;;;;;;5032926;28;20476;-86
2023/06/26 02:54:20;;;;;;;2.08;1.10;;;20.70;58.50;;;;;;5044687;28;20119;-87
2023/06/26 02:56:50;;;;;;;3.15;1.08;;;20.60;58.30;;;;;;5028442;28;20500;-87
2023/06/26 02:59:26;;;;;;;5.00;1.30;;;20.60;58.30;;;;;;5029035;28;20486;-86
2023/06/26 03:01:52;;;;;;;2.90;1.38;;;20.60;58.40;;;;;;5036662;28;20017;-86
2023/06/26 03:04:21;;;;;;;3.50;1.02;;;20.60;58.50;;;;;;5035450;28;20043;-87
2023/06/26 03:06:47;;;;;;;2.75;1.17;;;20.50;58.30;;;;;;5053556;28;20044;-87
2023/06/26 03:09:16;;;;;;;2.58;1.00;;;20.50;59.00;;;;;;5040322;28;20483;-86
2023/06/26 03:11:42;;;;;;;3.65;1.42;;;20.50;58.50;;;;;;5031753;28;20041;-86
2023/06/26 03:14:10;;;;;;;2.97;1.02;;;20.50;58.50;;;;;;5041776;28;20036;-86
2023/06/26 03:16:36;;;;;;;4.18;1.20;;;20.50;58.50;;;;;;5033865;28;20303;-88
2023/06/26 03:19:03;;;;;;;4.68;1.73;;;20.40;58.50;;;;;;5044313;28;20446;-86
2023/06/26 03:21:32;;;;;;;3.45;1.08;;;20.50;58.70;;;;;;5041621;28;20060;-85
2023/06/26 03:23:58;;;;;;;1.70;0.75;;;20.40;58.60;;;;;;5046996;28;20032;-85
2023/06/26 03:26:27;;;;;;;3.10;1.50;;;20.40;58.60;;;;;;5032364;28;20037;-85
2023/06/26 03:28:54;;;;;;;2.35;1.40;;;20.30;58.50;;;;;;5035316;28;20040;-85
2023/06/26 03:31:20;;;;;;;3.72;1.08;;;20.30;58.50;;;;;;5057201;28;20028;-84
2023/06/26 03:33:47;;;;;;;3.63;1.60;;;20.40;58.80;;;;;;5042275;28;20135;-85
2023/06/26 03:36:12;;;;;;;1.90;0.93;;;20.30;58.60;;;;;;5037067;28;20177;-85
2023/06/26 03:38:38;;;;;;;3.08;1.30;;;20.30;58.60;;;;;;5033925;28;20864;-88
2023/06/26 03:41:05;;;;;;;3.40;1.55;;;20.20;58.50;;;;;;5043569;28;20115;-88
2023/06/26 03:43:30;;;;;;;2.85;1.30;;;20.20;58.50;;;;;;5044273;28;20051;-86
2023/06/26 03:46:16;;;;;;;2.97;1.75;;;20.20;58.50;;;;;;5040420;28;20049;-86
2023/06/26 03:48:42;;;;;;;1.98;1.10;;;20.20;58.50;;;;;;5023367;28;20098;-87
2023/06/26 03:51:08;;;;;;;2.63;1.05;;;20.20;59.20;;;;;;5012219;28;20080;-86
2023/06/26 03:53:34;;;;;;;3.00;1.40;;;20.10;58.50;;;;;;5029457;28;20040;-86
2023/06/26 03:56:00;;;;;;;3.85;1.52;;;20.10;58.50;;;;;;5050971;28;20036;-86
2023/06/26 03:58:27;;;;;;;3.03;1.58;;;20.10;58.60;;;;;;5040911;28;20530;-86
2023/06/26 04:00:53;;;;;;;2.85;1.20;;;20.10;58.70;;;;;;5047124;28;20029;-89
2023/06/26 04:03:19;;;;;;;3.05;1.73;;;20.10;58.80;;;;;;5019982;28;20432;-88
2023/06/26 04:05:47;;;;;;;2.13;1.20;;;20.00;58.60;;;;;;5045911;28;20052;-89
2023/06/26 04:08:13;;;;;;;3.45;1.60;;;20.00;58.60;;;;;;5046038;28;20538;-89
2023/06/26 04:10:39;;;;;;;2.78;0.93;;;20.00;58.60;;;;;;5029674;28;20035;-92
2023/06/26 04:13:05;;;;;;;3.65;1.30;;;20.00;58.60;;;;;;5028406;28;20037;-89
2023/06/26 04:15:31;;;;;;;2.58;1.17;;;20.00;58.70;;;;;;5059928;28;20448;-87
2023/06/26 04:17:57;;;;;;;2.95;1.33;;;20.00;58.80;;;;;;5052942;28;20048;-88
2023/06/26 04:20:22;;;;;;;3.00;0.95;;;20.00;58.80;;;;;;5046672;28;20033;-88
2023/06/26 04:22:48;;;;;;;2.28;1.00;;;20.00;58.80;;;;;;5047019;28;20557;-87
2023/06/26 04:25:14;;;;;;;2.17;1.13;;;20.00;58.80;;;;;;5054514;28;20068;-88
2023/06/26 04:27:40;;;;;;;2.38;1.45;;;20.00;58.80;;;;;;5061545;28;20060;-88
2023/06/26 04:30:07;;;;;;;3.55;1.40;;;19.90;58.60;;;;;;5052615;28;20056;-87
2023/06/26 04:32:33;;;;;;;2.65;1.40;;;20.00;58.80;;;;;;5046652;28;20448;-87
2023/06/26 04:34:59;;;;;;;5.15;1.52;;;19.90;58.60;;;;;;5041635;28;20060;-88
2023/06/26 04:37:26;;;;;;;2.65;1.00;;;20.00;58.80;;;;;;5041200;28;20072;-88
2023/06/26 04:39:52;;;;;;;2.35;1.27;;;19.90;58.60;;;;;;5037562;28;20029;-85
2023/06/26 04:42:18;;;;;;;3.35;1.58;;;19.90;58.70;;;;;;5057636;28;20047;-85
2023/06/26 04:44:44;;;;;;;3.33;1.17;;;19.90;58.70;;;;;;5053363;28;20040;-88
2023/06/26 04:47:10;;;;;;;2.38;1.33;;;19.90;58.70;;;;;;5051868;28;20041;-85
2023/06/26 04:49:36;;;;;;;2.00;1.10;;;19.90;58.70;;;;;;5045355;28;20033;-87
2023/06/26 04:52:03;;;;;;;4.07;1.30;;;19.90;58.70;;;;;;5054768;28;20033;-87
2023/06/26 04:54:30;;;;;;;3.15;1.45;;;19.90;58.70;;;;;;5046342;28;20442;-86
2023/06/26 04:56:56;;;;;;;2.80;1.20;;;19.90;58.60;;;;;;5052183;28;20056;-84
2023/06/26 04:59:23;;;;;;;2.17;1.25;;;19.90;58.60;;;;;;5051019;28;20044;-85
2023/06/26 05:01:49;;;;;;;2.38;1.00;;;20.00;58.70;;;;;;5045916;28;20033;-82
2023/06/26 05:04:15;;;;;;;3.17;1.42;;;19.90;58.50;;;;;;5037627;28;20080;-81
2023/06/26 05:06:41;;;;;;;3.35;1.33;;;19.90;58.40;;;;;;5037893;28;20072;-84
2023/06/26 05:09:07;;;;;;;3.72;1.40;;;20.00;58.60;;;;;;5045340;28;20245;-86
2023/06/26 05:11:33;;;;;;;4.32;1.65;;;20.00;58.50;;;;;;5035730;28;20040;-84
2023/06/26 05:13:59;;;;;;;3.13;1.60;;;20.00;58.40;;;;;;5037173;28;20036;-83
2023/06/26 05:16:25;;;;;;;3.25;1.33;;;20.00;58.30;;;;;;5045848;28;20490;-86
2023/06/26 05:18:52;;;;;;;2.78;1.00;;;20.10;58.40;;;;;;5034716;28;20032;-87
2023/06/26 05:21:18;;;;;;;4.22;1.60;;;20.10;58.20;;;;;;5055258;28;20471;-86
2023/06/26 05:23:47;;;;;;;4.93;1.98;;;20.20;58.30;;;;;;5039768;28;20088;-85
2023/06/26 05:26:13;;;;;;;3.03;1.50;;;20.30;58.20;;;;;;5049809;28;20123;-82
2023/06/26 05:28:39;;;;;;;4.18;1.70;;;20.40;58.20;;;;;;5049926;28;20480;-83
2023/06/26 05:31:06;;;;;;;2.20;1.27;;;20.50;58.20;;;;;;5044170;28;20276;-81
2023/06/26 05:33:35;;;;;;;2.90;1.63;;;20.50;58.00;;;;;;5048839;28;20041;-81
2023/06/26 05:36:04;;;;;;;2.33;1.60;;;20.70;58.20;;;;;;5029230;28;20527;-83
2023/06/26 05:38:30;;;;;;;3.33;1.42;;;20.80;58.00;;;;;;5028375;28;20044;-81
2023/06/26 05:40:57;;;;;;;3.25;1.58;;;20.90;57.90;;;;;;5059577;28;20444;-81
2023/06/26 05:43:23;;;;;;;4.05;1.33;;;21.00;57.90;;;;;;5053218;28;20125;-81
2023/06/26 05:45:49;;;;;;;3.17;1.30;;;21.20;58.00;;;;;;5052835;28;20407;-81
2023/06/26 05:48:15;;;;;;;2.42;1.23;;;21.30;58.00;;;;;;5039869;28;20031;-82
2023/06/26 05:50:43;;;;;;;3.22;1.52;;;21.50;58.00;;;;;;5037219;28;20149;-82
2023/06/26 05:53:09;;;;;;;4.63;2.13;;;21.70;58.10;;;;;;5049743;28;20171;-81
2023/06/26 05:55:36;;;;;;;4.63;1.80;;;21.90;58.20;;;;;;5027279;28;20088;-83
2023/06/26 05:58:03;;;;;;;3.67;1.63;;;22.10;58.30;;;;;;5036515;28;20040;-80
2023/06/26 06:00:29;;;;;;;2.10;1.35;;;22.30;58.20;;;;;;5038315;28;20444;-79
2023/06/26 06:02:55;;;;;;;4.35;1.55;;;22.50;58.20;;;;;;5044205;28;20037;-82
2023/06/26 06:05:22;;;;;;;3.55;1.38;;;22.80;58.40;;;;;;5053559;28;20097;-82
2023/06/26 06:07:48;;;;;;;3.60;1.60;;;23.00;58.30;;;;;;5047045;28;20615;-81
2023/06/26 06:10:14;;;;;;;4.82;1.63;;;23.20;58.20;;;;;;5029676;28;20069;-81
2023/06/26 06:12:40;;;;;;;3.78;1.67;;;23.50;58.30;;;;;;5032014;28;20549;-81
2023/06/26 06:15:07;;;;;;;4.18;1.65;;;23.70;58.10;;;;;;5047289;28;20041;-83
2023/06/26 06:17:34;;;;;;;5.30;2.08;;;23.90;58.00;;;;;;5051258;28;20049;-81
2023/06/26 06:20:00;;;;;;;6.18;1.92;;;24.20;58.00;;;;;;5045490;28;20040;-81
2023/06/26 06:22:26;;;;;;;4.25;1.17;;;24.40;57.70;;;;;;5049198;28;20123;-80
2023/06/26 06:24:52;;;;;;;3.78;1.42;;;24.60;57.60;;;;;;5049134;28;20028;-82
2023/06/26 06:27:18;;;;;;;3.80;1.55;;;24.90;57.50;;;;;;5021665;28;20177;-82
2023/06/26 06:29:44;;;;;;;3.47;1.80;;;25.30;57.20;;;;;;5045072;28;20047;-82
2023/06/26 06:32:10;;;;;;;8.30;2.08;;;25.60;56.60;;;;;;5045914;28;20114;-82
2023/06/26 06:34:36;;;;;;;4.35;1.40;;;26.10;56.10;;;;;;5043673;28;20575;-82
2023/06/26 06:37:03;;;;;;;4.82;2.03;;;26.50;55.40;;;;;;5024242;28;20488;-81
2023/06/26 06:39:29;;;;;;;10.45;3.90;;;27.00;54.60;;;;;;5048061;28;20345;-81
2023/06/26 06:41:55;;;;;;;8.70;3.17;;;27.40;53.90;;;;;;5038305;28;20317;-80
2023/06/26 06:44:22;;;;;;;7.80;3.85;;;27.80;53.00;;;;;;5014378;28;20524;-80
2023/06/26 06:46:48;;;;;;;10.98;3.40;;;28.00;52.40;;;;;;5035506;28;20527;-80
2023/06/26 06:49:14;;;;;;;10.55;3.20;;;28.20;52.30;;;;;;5046226;28;20267;-80
2023/06/26 06:51:40;;;;;;;10.88;3.40;;;28.30;52.00;;;;;;5044688;28;20067;-80
2023/06/26 06:54:07;;;;;;;8.25;3.28;;;28.40;51.50;;;;;;5045276;28;20514;-80
2023/06/26 06:56:33;;;;;;;7.88;3.10;;;28.70;51.20;;;;;;5051915;28;20137;-81
2023/06/26 06:58:59;;;;;;;6.10;2.70;;;28.80;50.70;;;;;;5047380;28;20033;-80
2023/06/26 07:01:25;;;;;;;9.10;3.20;;;29.00;50.40;;;;;;5046376;28;20124;-80
2023/06/26 07:03:51;;;;;;;11.05;2.72;;;29.20;50.10;;;;;;5035307;28;20051;-80
2023/06/26 07:06:17;;;;;;;6.25;2.75;;;29.40;49.70;;;;;;5045191;28;20033;-80
2023/06/26 07:08:49;;;;;;;5.93;2.42;;;29.70;49.30;;;;;;5025387;28;20571;-80
2023/06/26 07:11:15;;;;;;;3.75;2.28;;;30.10;48.70;;;;;;5048214;28;20224;-80
2023/06/26 07:13:42;;;;;;;4.43;2.25;;;30.30;48.30;;;;;;5035859;28;20032;-82
2023/06/26 07:16:11;;;;;;;5.47;2.65;;;30.40;48.10;;;;;;5037949;28;20082;-88
2023/06/26 07:18:38;;;;;;;5.72;2.70;;;30.70;47.80;;;;;;5035954;28;20029;-83
2023/06/26 07:21:04;;;;;;;5.43;2.05;;;31.10;47.20;;;;;;5046308;28;20217;-84
2023/06/26 07:23:36;;;;;;;4.55;1.98;;;31.30;46.80;;;;;;5047448;28;20534;-83
2023/06/26 07:26:02;;;;;;;7.35;2.22;;;31.60;46.70;;;;;;5044080;28;20071;-83
2023/06/26 07:28:28;;;;;;;5.40;1.80;;;31.70;46.50;;;;;;5044255;28;20131;-84
2023/06/26 07:30:54;;;;;;;4.30;2.13;;;31.80;47.00;;;;;;5040582;28;20503;-83
2023/06/26 07:33:20;;;;;;;3.15;1.67;;;31.80;46.20;;;;;;5031035;28;20114;-84
2023/06/26 07:35:46;;;;;;;4.13;1.40;;;31.90;45.80;;;;;;5031246;28;20045;-84
2023/06/26 07:38:12;;;;;;;3.10;1.70;;;32.00;45.70;;;;;;5027040;28;20114;-86
2023/06/26 07:40:39;;;;;;;3.20;1.58;;;32.20;45.50;;;;;;5033919;28;20496;-84
2023/06/26 07:43:05;;;;;;;6.03;1.70;;;32.30;45.00;;;;;;5027326;28;20501;-85
2023/06/26 07:45:31;;;;;;;4.57;1.90;;;32.40;44.70;;;;;;5027931;28;20038;-83
2023/06/26 07:47:58;;;;;;;3.67;1.67;;;32.40;44.50;;;;;;5029609;28;20026;-86
2023/06/26 07:50:26;;;;;;;3.38;1.60;;;32.40;44.40;;;;;;5035583;28;20045;-83
2023/06/26 07:52:53;;;;;;;3.38;2.10;;;32.40;44.40;;;;;;5033963;28;20400;-84
2023/06/26 07:55:19;;;;;;;4.80;1.95;;;32.30;44.30;;;;;;5012883;28;20038;-84
2023/06/26 07:57:45;;;;;;;4.47;2.17;;;32.20;44.30;;;;;;5036195;28;20044;-80
2023/06/26 08:00:12;;;;;;;3.78;2.30;;;32.20;44.30;;;;;;5033736;28;20090;-80
2023/06/26 08:02:41;;;;;;;5.72;2.03;;;32.00;44.30;;;;;;5027170;28;20041;-81
2023/06/26 08:05:07;;;;;;;4.57;1.50;;;31.90;44.40;;;;;;5033727;28;20036;-81
2023/06/26 08:07:33;;;;;;;6.43;1.80;;;31.90;44.50;;;;;;5034734;28;20151;-80
2023/06/26 08:09:59;;;;;;;3.03;1.48;;;31.80;44.50;;;;;;5018141;28;20041;-80
2023/06/26 08:12:28;;;;;;;5.00;2.13;;;31.70;44.80;;;;;;5034508;28;20503;-81
2023/06/26 08:14:55;;;;;;;2.75;1.63;;;31.60;44.50;;;;;;5023447;28;20473;-81
2023/06/26 08:17:21;;;;;;;4.15;1.70;;;31.60;44.50;;;;;;5046744;28;20501;-83
2023/06/26 08:19:49;;;;;;;3.45;1.70;;;31.50;44.50;;;;;;5019485;28;20124;-81
2023/06/26 08:22:16;;;;;;;4.00;1.85;;;31.40;44.50;;;;;;5028757;28;20288;-81
2023/06/26 08:24:44;;;;;;;3.80;1.40;;;31.30;44.60;;;;;;5025698;28;20047;-81
2023/06/26 08:27:10;;;;;;;4.05;1.88;;;31.30;44.60;;;;;;5025165;28;20406;-81
2023/06/26 08:29:36;;;;;;;3.00;1.35;;;31.20;44.60;;;;;;5017758;28;20124;-82
2023/06/26 08:32:03;;;;;;;2.95;1.52;;;31.20;44.60;;;;;;5032553;28;20431;-87
2023/06/26 08:34:29;;;;;;;3.75;1.58;;;31.30;44.60;;;;;;5023986;28;20491;-87
2023/06/26 08:36:54;;;;;;;3.55;1.45;;;31.30;44.50;;;;;;5024506;28;20472;-88
2023/06/26 08:39:20;;;;;;;2.45;1.30;;;31.30;44.40;;;;;;5020080;28;20540;-88
2023/06/26 08:41:47;;;;;;;6.40;2.60;;;31.30;45.00;;;;;;5037521;28;20032;-88
2023/06/26 08:44:24;;;;;;;4.90;2.13;;;31.30;44.30;;;;;;5021424;28;20369;-82
2023/06/26 08:46:51;;;;;;;6.45;2.25;;;31.30;44.40;;;;;;5018124;28;20045;-81
2023/06/26 08:49:24;;;;;;;7.85;2.88;;;31.30;44.40;;;;;;5043953;28;20044;-82
2023/06/26 08:51:57;;;;;;;;;;;31.20;44.20;;;;;;5025027;28;20063;-82
2023/06/26 08:54:31;;;;;;;4.63;2.13;;;31.20;44.40;;;;;;5016526;28;19959;-81
2023/06/26 08:56:59;;;;;;;6.88;2.42;;;31.20;44.40;;;;;;5021147;28;20107;-83
2023/06/26 08:59:25;;;;;;;6.30;2.00;;;31.20;44.30;;;;;;5024459;28;20067;-84
2023/06/26 09:01:52;;;;;;;5.47;2.17;;;31.20;44.30;;;;;;5037373;28;20106;-82
2023/06/26 09:04:18;;;;;;;6.35;2.20;;;31.10;44.20;;;;;;5043475;28;20051;-82
2023/06/26 09:06:48;;;;;;;6.65;2.63;;;31.10;44.20;;;;;;5036141;28;20033;-83
2023/06/26 09:09:15;;;;;;;4.28;1.70;;;31.20;44.20;;;;;;5030934;28;20396;-82
2023/06/26 09:11:42;;;;;;;4.55;2.00;;;31.20;44.10;;;;;;5040010;28;20037;-81
2023/06/26 09:14:11;;;;;;;5.45;1.92;;;31.30;44.20;;;;;;5034710;28;20040;-81
2023/06/26 09:16:42;;;;;;;8.02;1.77;;;31.30;44.00;;;;;;5031644;28;20036;-83
2023/06/26 09:19:12;;;;;;;4.93;1.70;;;31.30;43.80;;;;;;5037050;28;20040;-81
2023/06/26 09:21:43;;;;;;;3.80;1.90;;;31.50;44.40;;;;;;5037441;28;20135;-82
2023/06/26 09:24:10;;;;;;;3.50;1.50;;;31.50;43.60;;;;;;5031399;28;20049;-83
2023/06/26 09:26:40;;;;;;;2.95;1.50;;;31.60;43.60;;;;;;5022230;28;20087;-81
2023/06/26 09:29:07;;;;;;;4.38;1.88;;;31.70;43.30;;;;;;5032803;28;20364;-81
2023/06/26 09:31:40;;;;;;;5.60;1.58;;;31.80;43.20;;;;;;5033537;28;20168;-81
2023/06/26 09:34:06;;;;;;;2.65;1.17;;;31.90;43.00;;;;;;5050872;28;20448;-84
2023/06/26 09:36:33;;;;;;;3.75;1.38;;;32.00;42.80;;;;;;5034149;28;20500;-83
2023/06/26 09:39:04;;;;;;;5.88;1.88;;;32.20;42.70;;;;;;5048811;28;20052;-84
2023/06/26 09:41:31;;;;;;;5.22;1.90;;;32.20;42.50;;;;;;5050625;28;20270;-87
2023/06/26 09:44:02;;;;;;;11.57;3.83;;;32.30;42.50;;;;;;5054006;28;20036;-82
2023/06/26 09:46:30;;;;;;;18.63;5.85;;;32.30;42.20;;;;;;5051737;28;20033;-82
2023/06/26 09:49:13;;;;;;;29.20;8.57;;;32.50;42.20;;;;;;5050512;28;20393;-79
2023/06/26 09:51:45;;;;;;;28.73;9.77;;;32.80;42.00;;;;;;5045968;28;20244;-80
2023/06/26 09:54:11;;;;;;;23.77;6.55;;;32.90;41.80;;;;;;5045173;28;20432;-82
2023/06/26 09:56:40;;;;;;;26.83;7.68;;;33.00;41.60;;;;;;5057639;28;20134;-81
2023/06/26 09:59:12;;;;;;;20.85;6.45;;;33.10;41.40;;;;;;5055978;28;20291;-83
2023/06/26 10:01:45;;;;;;;22.00;7.20;;;33.30;41.20;;;;;;5059070;28;20055;-83
2023/06/26 10:04:12;;;;;;;29.60;7.40;;;33.40;40.90;;;;;;5051685;28;20438;-81
2023/06/26 10:06:47;;;;;;;20.08;6.85;;;33.50;40.80;;;;;;5058637;28;20490;-81
2023/06/26 10:09:20;;;;;;;18.02;6.60;;;33.60;40.70;;;;;;5046831;28;20040;-82
2023/06/26 10:12:05;;;;;;;17.13;6.60;;;33.60;40.50;;;;;;5050526;28;20121;-82
2023/06/26 10:14:35;;;;;;;21.35;7.45;;;33.70;40.20;;;;;;5056902;28;20044;-82
2023/06/26 10:17:09;;;;;;;16.23;6.18;;;33.90;40.20;;;;;;5052535;28;20029;-81
2023/06/26 10:19:39;;;;;;;17.40;6.10;;;34.00;40.00;;;;;;5020889;28;20493;-81
2023/06/26 10:22:07;;;;;;;16.63;5.95;;;34.20;39.80;;;;;;5035259;28;20269;-80
2023/06/26 10:24:35;;;;;;;16.70;6.95;;;34.50;39.70;;;;;;5052548;28;20071;-81
2023/06/26 10:27:18;;;;;;;13.85;6.75;;;34.70;39.40;;;;;;5036725;28;20440;-82
2023/06/26 10:29:58;;;;;;;15.57;6.15;;;34.90;39.00;;;;;;5043546;28;20036;-84
2023/06/26 10:32:29;;;;;;;15.13;6.00;;;35.10;38.90;;;;;;5049054;28;20068;-84
2023/06/26 10:34:58;;;;;;;14.55;6.18;;;35.30;38.90;;;;;;5028717;28;20115;-84
2023/06/26 10:37:44;;;;;;;11.05;5.47;;;35.40;38.70;;;;;;5019647;28;20123;-86
2023/06/26 10:40:11;;;;;;;13.60;5.55;;;35.40;38.30;;;;;;5036143;28;20045;-82
2023/06/26 10:42:39;;;;;;;13.60;5.35;;;35.50;38.40;;;;;;5051230;28;20272;-84
2023/06/26 10:45:20;;;;;;;12.52;5.05;;;35.50;38.20;;;;;;5044479;28;20542;-83
2023/06/26 10:47:47;;;;;;;10.68;4.57;;;35.50;37.90;;;;;;5055605;28;20034;-84
2023/06/26 10:50:24;;;;;;;13.23;4.80;;;35.60;38.00;;;;;;5030618;28;20381;-84
2023/06/26 10:53:09;;;;;;;6.75;3.70;;;35.50;37.80;;;;;;5032748;28;20064;-83
2023/06/26 10:55:42;;;;;;;6.82;3.83;;;35.40;37.70;;;;;;5034825;28;20098;-81
2023/06/26 10:58:34;;;;;;;7.15;4.15;;;35.40;38.00;;;;;;5049632;28;20048;-82
2023/06/26 11:01:22;;;;;;;;;;;35.40;37.80;;;;;;5052401;28;20037;-82
2023/06/26 11:04:03;;;;;;;7.43;3.08;;;35.30;38.20;;;;;;5037759;28;20710;-81
2023/06/26 11:06:30;;;;;;;6.38;2.88;;;35.30;38.20;;;;;;5047380;28;20135;-84
2023/06/26 11:09:05;;;;;;;8.75;3.28;;;35.30;38.20;;;;;;5034195;28;20064;-83
2023/06/26 11:11:59;;;;;;;6.63;2.90;;;35.40;37.90;;;;;;5039008;28;20048;-85
2023/06/26 11:14:27;;;;;;;5.00;2.78;;;35.40;37.60;;;;;;5046122;28;20032;-82
2023/06/26 11:16:56;;;;;;;6.95;2.95;;;35.40;37.90;;;;;;5039536;28;20858;-82
2023/06/26 11:19:22;;;;;;;6.57;2.40;;;35.30;37.70;;;;;;5053297;28;20040;-82
2023/06/26 11:21:48;;;;;;;4.47;2.30;;;35.30;37.80;;;;;;5055731;28;20067;-82
2023/06/26 11:24:15;;;;;;;7.72;2.60;;;35.40;37.80;;;;;;5040469;28;20045;-82
2023/06/26 11:26:43;;;;;;;6.22;2.25;;;35.50;37.60;;;;;;5029211;28;20028;-83
2023/06/26 11:29:10;;;;;;;6.18;2.17;;;35.70;37.50;;;;;;5032742;28;20192;-82
2023/06/26 11:31:38;;;;;;;3.65;2.00;;;35.60;37.30;;;;;;5057456;28;20539;-82
2023/06/26 11:34:13;;;;;;;5.68;2.47;;;35.60;37.30;;;;;;5058068;28;20047;-82
2023/06/26 11:36:41;;;;;;;3.63;1.92;;;35.60;37.40;;;;;;5049490;28;20124;-81
2023/06/26 11:39:08;;;;;;;3.65;1.88;;;35.70;37.40;;;;;;5048544;28;20044;-82
2023/06/26 11:41:36;;;;;;;3.58;1.88;;;35.90;37.20;;;;;;5043916;28;20558;-81
2023/06/26 11:44:02;;;;;;;5.47;2.28;;;36.10;37.10;;;;;;5046885;28;20384;-81
2023/06/26 11:46:30;;;;;;;4.53;2.10;;;36.30;37.00;;;;;;5015439;28;20425;-82
2023/06/26 11:48:56;;;;;;;7.60;1.83;;;36.40;36.90;;;;;;5024843;28;20063;-82
2023/06/26 11:51:23;;;;;;;3.10;1.50;;;36.50;36.80;;;;;;5039723;28;20625;-82
2023/06/26 11:53:49;;;;;;;6.28;2.22;;;36.40;37.30;;;;;;5048156;28;20083;-82
2023/06/26 11:56:17;;;;;;;3.35;1.58;;;36.30;36.70;;;;;;5040723;28;20078;-83
2023/06/26 11:59:02;;;;;;;4.43;1.73;;;36.10;36.60;;;;;;5025466;28;20267;-83
2023/06/26 12:01:44;;;;;;;5.68;1.92;;;36.00;36.70;;;;;;5030504;28;20158;-83
2023/06/26 12:04:14;;;;;;;2.97;1.30;;;35.80;36.90;;;;;;5047578;28;20051;-83
2023/06/26 12:06:46;;;;;;;;;;;35.70;37.50;;;;;;5017601;28;20083;-81
2023/06/26 12:09:13;;;;;;;2.35;1.25;;;35.70;37.30;;;;;;5046887;28;19919;-82
2023/06/26 12:11:42;;;;;;;4.80;2.17;;;35.80;37.40;;;;;;5033224;28;20040;-82
2023/06/26 12:14:09;;;;;;;3.70;1.65;;;35.80;37.20;;;;;;5045378;28;20474;-83
2023/06/26 12:16:37;;;;;;;4.55;1.90;;;35.90;37.10;;;;;;5044246;28;20534;-81
2023/06/26 12:19:08;;;;;;;3.38;1.23;;;36.10;37.10;;;;;;5046321;28;20557;-82
2023/06/26 12:21:36;;;;;;;4.68;1.77;;;36.20;36.90;;;;;;5032365;28;20037;-79
2023/06/26 12:24:08;;;;;;;2.15;0.95;;;36.50;36.70;;;;;;5042034;28;20315;-82
2023/06/26 12:26:38;;;;;;;5.70;1.88;;;36.70;36.50;;;;;;5043796;28;20476;-82
2023/06/26 12:29:06;;;;;;;1.70;1.05;;;36.90;36.50;;;;;;5049587;28;20491;-81
2023/06/26 12:31:33;;;;;;;2.75;1.10;;;37.10;36.20;;;;;;5050737;28;20045;-82
2023/06/26 12:34:00;;;;;;;3.42;1.25;;;37.30;36.10;;;;;;5039855;28;20047;-82
2023/06/26 12:36:39;;;;;;;2.97;1.20;;;37.40;35.90;;;;;;5048642;28;20033;-83
2023/06/26 12:39:05;;;;;;;2.55;1.15;;;37.50;35.70;;;;;;5050342;28;20040;-83
2023/06/26 12:41:52;;;;;;;2.30;1.30;;;37.60;35.70;;;;;;5050802;28;20758;-83
2023/06/26 12:44:19;;;;;;;4.38;1.45;;;37.70;35.60;;;;;;5037148;28;20047;-83
2023/06/26 12:46:47;;;;;;;2.47;0.95;;;37.80;35.60;;;;;;5043923;28;20728;-82
2023/06/26 12:49:13;;;;;;;2.08;0.95;;;37.80;35.60;;;;;;5051906;28;20436;-82
2023/06/26 12:51:51;;;;;;;3.63;1.33;;;37.80;35.40;;;;;;5044343;28;20420;-81
2023/06/26 12:54:17;;;;;;;1.25;0.95;;;37.80;35.50;;;;;;5049400;28;20222;-81